Time;durP1;ratioP1;P1;durP2;ratioP2;P2;SDS_P1;SDS_P2;PMS_P1;PMS_P2;Temp;Humidity;BMP_temperature;BMP_pressure;BME280_temperature;BME280_humidity;BME280_pressure;Samples;Min_cycle;Max_cycle;Signal;HPM_P1;HPM_P2
2023/10/13 00:02:03;;;;;;;23.87;17.53;;;16.40;96.40;;;18.04;71.86;101025.50;3082198;46;21006;-68
2023/10/13 00:04:37;;;;;;;25.60;19.27;;;16.40;96.50;;;18.06;71.93;101023.44;3082020;46;20443;-68
2023/10/13 00:07:24;;;;;;;24.50;18.33;;;16.40;96.60;;;18.05;72.49;101013.78;3082089;46;20528;-69
2023/10/13 00:10:11;;;;;;;27.87;21.27;;;16.40;96.60;;;18.05;72.69;101011.13;3081321;46;20535;-69
2023/10/13 00:12:40;;;;;;;24.60;19.90;;;16.40;96.60;;;18.08;72.24;101008.84;3082115;46;20918;-68
2023/10/13 00:15:13;;;;;;;25.33;21.20;;;16.40;96.60;;;18.09;72.40;101012.34;3081563;46;20553;-69
2023/10/13 00:17:42;;;;;;;27.30;20.63;;;16.40;96.70;;;18.10;72.40;101005.97;3081994;46;20511;-69
2023/10/13 00:20:37;;;;;;;27.00;21.63;;;16.50;96.80;;;18.10;72.91;101005.97;3081578;46;21106;-68
2023/10/13 00:23:06;;;;;;;29.60;22.87;;;16.50;96.90;;;18.08;73.28;101000.88;3081788;46;20576;-68
2023/10/13 00:25:43;;;;;;;26.77;19.63;;;16.50;96.90;;;18.10;72.82;100996.13;3081742;46;21076;-69
2023/10/13 00:28:22;;;;;;;27.30;22.23;;;16.50;96.90;;;18.12;73.34;100990.56;3082006;46;21123;-69
2023/10/13 00:31:36;;;;;;;28.23;22.27;;;16.50;97.00;;;18.12;73.54;100979.91;3081350;46;20435;-68
2023/10/13 00:34:01;;;;;;;30.87;22.10;;;16.50;97.10;;;18.14;73.62;100988.50;3080771;46;20444;-68
2023/10/13 00:36:31;;;;;;;29.33;21.87;;;16.50;97.20;;;18.16;73.67;100981.13;3081905;46;20567;-69
2023/10/13 00:39:00;;;;;;;26.30;21.93;;;16.50;97.20;;;18.21;73.80;100978.59;3081430;46;21055;-68
2023/10/13 00:41:51;;;;;;;27.37;22.63;;;16.60;97.30;;;18.24;73.78;100972.84;3081357;46;20574;-68
2023/10/13 00:44:37;;;;;;;28.40;22.67;;;16.60;97.40;;;18.28;73.86;100979.34;3081834;46;20456;-68
2023/10/13 00:47:09;;;;;;;28.97;22.37;;;16.60;97.50;;;18.32;74.33;100972.56;3081581;46;20452;-69
2023/10/13 00:49:39;;;;;;;27.90;22.33;;;16.70;97.60;;;18.36;74.28;100972.94;3080975;46;20459;-69
2023/10/13 00:52:10;;;;;;;26.90;22.93;;;16.70;97.80;;;18.39;74.29;100986.66;3081823;46;20468;-68
2023/10/13 00:54:39;;;;;;;27.47;22.30;;;16.70;97.80;;;18.42;75.10;100978.22;3080642;46;20427;-69
2023/10/13 00:57:12;;;;;;;24.97;21.53;;;16.80;98.50;;;18.46;74.99;100970.63;3081345;46;20501;-69
2023/10/13 00:59:45;;;;;;;26.43;22.20;;;16.80;98.10;;;18.48;75.34;100964.03;3080716;46;20493;-67
2023/10/13 01:03:06;;;;;;;24.67;22.07;;;16.90;98.30;;;18.54;75.41;100962.34;3081727;46;21080;-68
2023/10/13 01:05:09;;;;;;;25.20;22.50;;;16.90;98.30;;;18.57;75.30;100962.72;3080538;46;20533;-69
2023/10/13 01:07:38;;;;;;;26.10;21.63;;;17.00;98.40;;;18.61;75.34;100953.22;3081326;46;20439;-68
2023/10/13 01:10:14;;;;;;;27.47;22.00;;;17.00;98.40;;;18.64;75.37;100942.13;3079786;46;20489;-70
2023/10/13 01:12:43;;;;;;;30.07;23.97;;;17.00;98.40;;;18.67;75.09;100949.69;3081455;46;20459;-70
2023/10/13 01:15:16;;;;;;;25.80;23.00;;;17.10;98.40;;;18.67;76.13;100941.69;3080883;46;20455;-68
2023/10/13 01:17:46;;;;;;;28.57;23.07;;;17.10;98.60;;;18.71;75.33;100934.84;3081385;46;20468;-68
2023/10/13 01:20:25;;;;;;;32.07;25.83;;;17.10;98.50;;;18.74;75.40;100933.59;3080484;46;20491;-70
2023/10/13 01:22:56;;;;;;;28.97;24.87;;;17.20;98.50;;;18.74;75.74;100934.44;3081583;46;20451;-70
2023/10/13 01:25:26;;;;;;;29.20;24.23;;;17.20;98.60;;;18.78;75.63;100927.59;3080881;46;20439;-68
2023/10/13 01:27:57;;;;;;;28.73;25.63;;;17.20;98.50;;;18.81;75.58;100916.50;3080885;46;21009;-69
2023/10/13 01:30:26;;;;;;;29.83;24.90;;;17.20;98.60;;;18.85;75.22;100924.88;3080495;46;20460;-70
2023/10/13 01:32:54;;;;;;;27.83;23.87;;;17.30;98.60;;;18.86;75.79;100926.47;3081270;46;21114;-69
2023/10/13 01:35:34;;;;;;;35.50;26.80;;;17.30;98.60;;;18.88;75.97;100921.72;3081294;46;20522;-69
2023/10/13 01:38:03;;;;;;;31.43;25.53;;;17.30;98.60;;;18.91;75.47;100911.44;3080735;46;20444;-69
2023/10/13 01:40:33;;;;;;;30.80;26.13;;;17.30;98.70;;;18.94;75.51;100907.50;3080272;46;20459;-68
2023/10/13 01:43:04;;;;;;;31.53;25.77;;;17.40;98.80;;;18.97;75.52;100903.59;3080802;46;20513;-70
2023/10/13 01:45:32;;;;;;;27.30;24.40;;;17.40;98.80;;;19.00;76.07;100905.78;3080765;46;20509;-69
2023/10/13 01:48:01;;;;;;;30.67;25.80;;;17.40;98.90;;;19.01;76.03;100902.09;3080552;46;21021;-69
2023/10/13 01:50:30;;;;;;;27.07;24.07;;;17.40;98.90;;;19.03;75.46;100892.00;3080511;46;20442;-69
2023/10/13 01:53:14;;;;;;;29.23;24.50;;;17.50;98.90;;;19.01;76.01;100899.41;3080700;46;20431;-70
2023/10/13 01:55:45;;;;;;;28.60;23.60;;;17.40;98.90;;;19.00;76.74;100893.25;3080551;46;20461;-68
2023/10/13 01:58:16;;;;;;;26.87;23.70;;;17.50;99.00;;;19.03;75.93;100892.81;3081220;46;21166;-70
2023/10/13 02:00:47;;;;;;;27.17;23.87;;;17.50;99.00;;;19.05;76.39;100896.06;3080088;46;20526;-69
2023/10/13 02:03:16;;;;;;;28.67;24.73;;;17.50;99.10;;;19.07;76.55;100899.31;3080940;46;20439;-70
2023/10/13 02:05:52;;;;;;;30.60;24.50;;;17.60;99.20;;;19.06;76.64;100891.56;3080932;46;20427;-69
2023/10/13 02:08:23;;;;;;;26.43;23.20;;;17.60;99.20;;;19.07;77.07;100887.81;3079495;44;20453;-70
2023/10/13 02:10:55;;;;;;;27.67;24.10;;;17.60;99.20;;;19.10;76.82;100885.53;3080352;46;20435;-70
2023/10/13 02:13:25;;;;;;;28.87;25.87;;;17.60;99.30;;;19.15;76.56;100887.53;3080253;46;20431;-69
2023/10/13 02:15:57;;;;;;;28.50;25.47;;;17.60;99.30;;;19.19;76.85;100894.03;3080469;46;20434;-69
2023/10/13 02:18:33;;;;;;;31.03;24.17;;;17.60;99.30;;;19.20;76.93;100883.13;3079846;46;20430;-71
2023/10/13 02:21:12;;;;;;;31.23;25.40;;;17.70;99.40;;;19.25;76.32;100887.78;3080101;46;20478;-68
2023/10/13 02:23:44;;;;;;;31.87;25.97;;;17.70;99.30;;;19.30;76.17;100880.72;3080646;46;20564;-69
2023/10/13 02:26:29;;;;;;;32.87;25.50;;;17.70;99.30;;;19.33;76.49;100884.78;3081000;46;20983;-69
2023/10/13 02:29:06;;;;;;;28.23;25.23;;;17.70;99.30;;;19.35;76.17;100880.06;3080186;46;20431;-68
2023/10/13 02:31:36;;;;;;;33.83;26.77;;;17.80;99.30;;;19.37;76.49;100876.13;3080567;46;20560;-70
2023/10/13 02:34:08;;;;;;;33.87;26.87;;;17.80;99.40;;;19.42;75.98;100859.44;3080458;46;21101;-68
2023/10/13 02:36:54;;;;;;;31.60;26.80;;;17.80;99.30;;;19.46;76.06;100852.59;3080345;46;20431;-67
2023/10/13 02:39:26;;;;;;;30.20;27.03;;;17.80;99.30;;;19.46;75.86;100856.09;3079174;46;20443;-70
2023/10/13 02:41:56;;;;;;;31.93;27.17;;;17.90;99.30;;;19.47;75.92;100847.00;3080598;46;21046;-68
2023/10/13 02:44:27;;;;;;;32.03;27.87;;;17.90;99.30;;;19.47;76.43;100847.00;3080951;46;20465;-69
2023/10/13 02:46:56;;;;;;;33.90;29.50;;;17.90;99.20;;;19.44;76.36;100841.34;3080499;46;20427;-69
2023/10/13 02:49:27;;;;;;;32.00;28.33;;;18.00;99.30;;;19.47;76.22;100835.50;3079867;46;21176;-69
2023/10/13 02:51:56;;;;;;;30.27;26.53;;;17.90;99.30;;;19.50;76.30;100835.88;3079839;46;21053;-68
2023/10/13 02:54:30;;;;;;;34.27;29.40;;;18.00;99.30;;;19.53;76.11;100834.59;3080985;46;20462;-68
2023/10/13 02:57:03;;;;;;;31.97;27.83;;;18.00;99.30;;;19.55;76.44;100827.16;3082304;46;20427;-69
2023/10/13 02:59:40;;;;;;;30.53;27.43;;;18.00;99.20;;;19.58;76.15;100826.72;3081585;46;20604;-69
2023/10/13 03:02:17;;;;;;;32.17;28.50;;;18.00;99.20;;;19.59;75.88;100823.81;3082953;46;20469;-69
2023/10/13 03:05:08;;;;;;;33.37;27.37;;;18.00;99.20;;;19.60;76.05;100821.94;3082072;46;20567;-69
2023/10/13 03:07:43;;;;;;;31.67;27.47;;;18.10;99.20;;;19.61;75.50;100810.25;3082626;46;20427;-70
2023/10/13 03:10:12;;;;;;;34.03;27.93;;;18.10;99.20;;;19.62;75.85;100811.84;3081154;46;20442;-69
2023/10/13 03:12:41;;;;;;;31.30;27.63;;;18.10;99.20;;;19.64;75.75;100807.09;3082517;46;20426;-69
2023/10/13 03:15:17;;;;;;;34.47;28.60;;;18.10;99.20;;;19.64;75.74;100812.41;3082762;46;20982;-70
2023/10/13 03:17:47;;;;;;;30.67;26.40;;;18.10;99.20;;;19.66;75.72;100807.66;3082465;46;20427;-68
2023/10/13 03:20:22;;;;;;;33.37;28.37;;;18.10;99.10;;;19.66;76.08;100802.31;3080257;43;21181;-69
2023/10/13 03:22:53;;;;;;;30.13;26.87;;;18.10;99.10;;;19.65;75.90;100806.06;3082791;46;21000;-69
2023/10/13 03:25:42;;;;;;;30.73;27.47;;;18.20;99.10;;;19.65;76.28;100800.72;3082491;46;20438;-69
2023/10/13 03:28:13;;;;;;;32.17;27.37;;;18.20;99.10;;;19.65;75.88;100802.56;3082913;46;21075;-70
2023/10/13 03:30:42;;;;;;;31.67;27.00;;;18.20;99.10;;;19.65;76.43;100790.03;3081610;46;20439;-69
2023/10/13 03:33:25;;;;;;;30.30;27.00;;;18.20;99.10;;;19.66;76.40;100793.50;3081369;46;20435;-69
2023/10/13 03:35:54;;;;;;;35.07;27.23;;;18.20;99.20;;;19.65;76.26;100792.69;3081709;46;20476;-68
2023/10/13 03:38:27;;;;;;;29.73;25.03;;;18.20;99.10;;;19.67;76.30;100793.28;3081333;46;20439;-68
2023/10/13 03:41:20;;;;;;;27.33;24.47;;;18.20;99.10;;;19.70;75.90;100784.81;3082341;46;20439;-69
2023/10/13 03:43:52;;;;;;;29.10;24.77;;;18.20;99.50;;;19.73;75.94;100791.53;3082121;46;21022;-69
2023/10/13 03:46:21;;;;;;;29.93;24.83;;;18.20;99.10;;;19.76;75.79;100778.50;3082363;46;20564;-68
2023/10/13 03:48:54;;;;;;;31.73;25.37;;;18.20;99.10;;;19.78;75.58;100783.63;3081369;46;20509;-70
2023/10/13 03:51:30;;;;;;;26.73;23.53;;;18.30;99.20;;;19.82;75.88;100787.47;3081188;46;20584;-68
2023/10/13 03:53:59;;;;;;;29.20;25.37;;;18.30;99.20;;;19.81;75.92;100788.50;3082357;46;20427;-69
2023/10/13 03:56:38;;;;;;;27.33;24.47;;;18.30;99.20;;;19.83;75.87;100779.19;3082300;46;20965;-69
2023/10/13 03:59:09;;;;;;;27.40;23.87;;;18.30;99.10;;;19.79;75.55;100780.72;3080498;46;20454;-69
2023/10/13 04:01:53;;;;;;;29.73;24.00;;;18.30;99.10;;;19.76;75.75;100775.03;3081208;46;21076;-68
2023/10/13 04:04:34;;;;;;;26.93;23.83;;;18.30;99.10;;;19.73;76.06;100773.63;3081893;46;21056;-69
2023/10/13 04:17:40;;;;;;;27.63;24.60;;;18.30;99.10;;;19.78;75.91;100763.06;3081512;46;20435;-71
2023/10/13 04:36:14;;;;;;;25.40;22.67;;;18.30;99.10;;;19.76;75.76;100730.44;3081853;46;20568;-69
2023/10/13 04:39:00;;;;;;;26.83;21.80;;;18.30;99.10;;;19.81;75.81;100724.38;3080565;46;20435;-69
2023/10/13 04:41:42;;;;;;;25.03;22.33;;;18.30;99.20;;;19.77;75.65;100708.03;3082192;46;20575;-70
2023/10/13 05:00:55;;;;;;;24.40;21.80;;;18.30;99.00;;;19.81;75.64;100666.44;3080725;43;20529;-69
2023/10/13 05:49:50;;;;;;;25.60;22.87;;;18.40;99.10;;;19.77;76.33;100601.19;3080400;46;20466;-69
2023/10/13 05:52:19;;;;;;;26.33;22.90;;;18.40;99.10;;;19.74;76.14;100601.66;3080933;46;20431;-68
2023/10/13 06:31:06;;;;;;;26.60;23.80;;;18.40;99.50;;;19.71;76.87;100554.03;3080591;46;21045;-69
2023/10/13 06:33:34;;;;;;;29.33;25.00;;;18.40;99.40;;;19.69;76.96;100539.28;3082728;46;21055;-69
2023/10/13 06:36:09;;;;;;;27.33;24.37;;;18.40;99.60;;;19.65;76.90;100533.63;3083111;46;21009;-69
2023/10/13 06:38:38;;;;;;;27.23;24.30;;;18.30;99.50;;;19.62;77.67;100528.75;3083032;46;21825;-69
2023/10/13 06:41:08;;;;;;;27.00;24.17;;;18.30;99.60;;;19.63;77.00;100527.72;3082637;46;21078;-70
2023/10/13 06:43:40;;;;;;;25.40;22.77;;;18.30;99.60;;;19.64;77.40;100526.66;3082863;46;20469;-69
2023/10/13 06:46:16;;;;;;;26.00;23.50;;;18.30;99.70;;;19.58;77.90;100517.75;3082343;46;20430;-70
2023/10/13 06:48:44;;;;;;;27.97;25.07;;;18.30;99.70;;;19.58;78.13;100506.25;3082592;46;20524;-69
2023/10/13 06:51:21;;;;;;;25.77;23.07;;;18.30;99.70;;;19.52;77.94;100507.19;3082504;46;20477;-68
2023/10/13 06:53:56;;;;;;;25.33;22.73;;;18.30;99.80;;;19.49;77.99;100502.34;3083005;46;20567;-69
2023/10/13 06:56:28;;;;;;;27.17;23.73;;;18.30;99.90;;;19.43;78.22;100493.44;3082328;46;20427;-69
2023/10/13 06:58:59;;;;;;;27.50;24.70;;;18.30;99.80;;;19.42;78.80;100483.00;3082287;46;20430;-69
2023/10/13 07:01:28;;;;;;;25.43;22.70;;;18.20;99.90;;;19.36;79.19;100470.59;3082614;46;20468;-69
2023/10/13 07:04:01;;;;;;;25.93;23.23;;;18.20;99.90;;;19.35;78.87;100460.94;3082140;46;20507;-69
2023/10/13 07:06:31;;;;;;;25.93;23.33;;;18.20;99.90;;;19.34;79.06;100462.81;3082022;46;20426;-69
2023/10/13 07:09:04;;;;;;;27.67;24.73;;;18.20;99.90;;;19.36;78.99;100449.25;3082125;46;20494;-70
2023/10/13 07:11:42;;;;;;;27.83;24.83;;;18.20;99.90;;;19.38;79.07;100447.13;3082381;46;21075;-69
2023/10/13 07:14:10;;;;;;;27.47;24.77;;;18.10;99.90;;;19.39;79.29;100449.59;3082073;46;20517;-69
2023/10/13 07:17:07;;;;;;;26.30;23.60;;;18.10;99.90;;;19.31;79.39;100451.78;3082926;46;20451;-69
2023/10/13 07:19:45;;;;;;;29.77;26.03;;;18.10;99.90;;;19.31;79.78;100443.78;3082209;46;20459;-69
2023/10/13 07:22:19;;;;;;;29.07;25.90;;;18.10;99.90;;;19.29;79.55;100445.88;3081589;46;20443;-70
2023/10/13 07:24:50;;;;;;;28.50;25.50;;;18.10;99.90;;;19.27;80.40;100450.66;3082171;46;20573;-69
2023/10/13 07:27:24;;;;;;;28.23;24.17;;;18.10;99.90;;;19.26;79.98;100444.50;3081920;46;20488;-69
2023/10/13 07:29:56;;;;;;;26.40;23.77;;;18.10;99.90;;;19.26;80.26;100433.81;3081252;46;20526;-69
2023/10/13 07:32:26;;;;;;;25.00;22.50;;;18.10;99.90;;;19.27;79.98;100434.63;3081880;46;21091;-69
2023/10/13 07:34:55;;;;;;;25.83;23.27;;;18.10;99.90;;;19.30;79.91;100447.50;3082086;46;20549;-70
2023/10/13 07:37:30;;;;;;;21.97;19.97;;;18.10;99.90;;;19.18;80.12;100431.53;3082007;46;20460;-69
2023/10/13 07:39:58;;;;;;;21.67;19.43;;;18.00;99.90;;;19.16;80.30;100432.84;3080996;46;21032;-69
2023/10/13 07:42:38;;;;;;;20.97;18.17;;;18.10;99.90;;;19.13;79.74;100434.13;3081439;46;20451;-70
2023/10/13 07:45:08;;;;;;;17.03;15.40;;;18.10;99.90;;;19.03;79.82;100427.75;3082514;46;20529;-67
2023/10/13 07:47:38;;;;;;;16.77;15.07;;;18.00;99.90;;;19.02;79.83;100426.16;3081904;46;20455;-69
2023/10/13 07:50:07;;;;;;;15.33;13.70;;;18.10;99.90;;;18.94;79.75;100425.44;3081352;46;20614;-70
2023/10/13 07:52:54;;;;;;;15.83;14.13;;;18.00;99.90;;;18.97;80.13;100423.38;3081743;46;20541;-68
2023/10/13 07:55:22;;;;;;;14.37;12.97;;;18.00;99.90;;;18.97;80.12;100431.38;3082125;46;20520;-68
2023/10/13 07:57:54;;;;;;;14.20;12.80;;;17.90;99.90;;;19.04;80.17;100435.50;3081311;46;20565;-69
2023/10/13 08:08:34;;;;;;;12.10;10.90;;;18.00;99.90;;;19.33;79.83;100437.16;3080631;46;21022;-70
2023/10/13 08:11:24;;;;;;;12.67;11.37;;;18.10;99.90;;;19.38;79.49;100431.94;3080830;46;20443;-68
2023/10/13 08:17:07;;;;;;;13.90;12.03;;;18.20;99.90;;;19.55;79.60;100450.66;3082035;46;20439;-68
2023/10/13 08:19:39;;;;;;;14.00;10.77;;;18.30;99.90;;;19.64;79.31;100449.22;3081354;46;20446;-69
2023/10/13 08:27:34;;;;;;;11.40;9.23;;;18.40;99.90;;;19.96;78.46;100434.28;3081564;46;20465;-68
2023/10/13 08:32:58;;;;;;;10.03;9.13;;;18.60;99.90;;;20.11;76.75;100420.34;3081719;46;20423;-69
2023/10/13 08:41:29;;;;;;;11.53;7.90;;;18.80;99.70;;;20.19;77.02;100417.22;3081229;46;20524;-68
2023/10/13 08:43:50;;;;;;;9.60;7.70;;;18.90;99.80;;;20.27;76.68;100408.03;3081563;46;20623;-68
2023/10/13 08:46:30;;;;;;;8.97;8.07;;;18.90;99.70;;;20.33;76.54;100401.69;3082283;46;20439;-68
2023/10/13 08:49:14;;;;;;;9.77;8.10;;;18.90;99.70;;;20.35;76.08;100411.06;3081070;46;20431;-67
2023/10/13 08:51:49;;;;;;;8.70;6.97;;;19.00;99.90;;;20.39;75.79;100422.09;3082692;46;21002;-69
2023/10/13 08:54:33;;;;;;;13.27;7.57;;;19.00;99.50;;;20.43;75.58;100417.88;3081851;46;20431;-68
2023/10/13 08:57:49;;;;;;;12.03;6.67;;;19.00;99.40;;;20.42;75.35;100410.91;3080394;46;20443;-69
2023/10/13 08:59:55;;;;;;;8.30;7.27;;;19.00;99.20;;;20.42;75.50;100402.91;3079935;43;20924;-68
2023/10/13 09:08:08;;;;;;;10.40;7.60;;;19.10;99.10;;;20.52;74.86;100411.84;3080601;46;20427;-70
2023/10/13 09:11:05;;;;;;;11.70;7.97;;;19.20;99.10;;;20.56;75.42;100404.16;3080434;46;20464;-69
2023/10/13 09:13:43;;;;;;;8.47;7.50;;;19.20;99.10;;;20.56;74.79;100401.47;3081734;46;20531;-69
2023/10/13 09:19:05;;;;;;;8.63;7.03;;;19.20;99.00;;;20.55;74.84;100389.16;3080978;46;21091;-69
2023/10/13 09:24:31;;;;;;;8.20;7.37;;;19.20;98.90;;;20.54;75.33;100387.56;3080479;46;20462;-70
2023/10/13 09:27:01;;;;;;;9.77;7.50;;;19.20;98.90;;;20.55;75.45;100378.44;3079495;46;20548;-69
2023/10/13 09:29:31;;;;;;;8.93;7.73;;;19.20;99.00;;;20.56;75.38;100358.69;3078929;46;20471;-68
2023/10/13 09:32:04;;;;;;;8.70;7.73;;;19.20;99.00;;;20.56;75.36;100354.13;3080976;46;20549;-70
2023/10/13 09:34:40;;;;;;;8.03;7.23;;;19.30;99.40;;;20.64;75.28;100360.91;3080793;46;20432;-68
2023/10/13 09:37:11;;;;;;;10.37;7.30;;;19.30;99.10;;;20.68;75.38;100357.47;3080731;46;20431;-69
2023/10/13 09:39:45;;;;;;;11.87;8.00;;;19.30;99.20;;;20.72;75.11;100344.44;3079778;46;20576;-68
2023/10/13 09:42:15;;;;;;;11.77;7.43;;;19.40;99.20;;;20.72;75.44;100325.69;3079733;46;20430;-69
2023/10/13 09:44:55;;;;;;;10.10;7.03;;;19.40;99.10;;;20.76;75.28;100316.91;3080575;46;20431;-69
2023/10/13 09:47:36;;;;;;;9.67;8.23;;;19.40;99.10;;;20.80;75.59;100309.22;3080401;46;20568;-69
2023/10/13 09:50:23;;;;;;;9.17;8.13;;;19.50;99.20;;;20.87;74.84;100307.16;3079878;46;20565;-69
2023/10/13 09:52:54;;;;;;;12.03;8.37;;;19.50;99.20;;;20.93;74.72;100306.13;3078809;46;20427;-69
2023/10/13 09:55:39;;;;;;;10.63;8.57;;;19.50;99.20;;;20.97;74.75;100290.38;3078009;43;20446;-69
2023/10/13 09:58:12;;;;;;;10.03;7.63;;;19.60;99.20;;;21.06;74.67;100295.03;3078662;46;20543;-70
2023/10/13 10:01:10;;;;;;;8.67;7.87;;;19.60;99.20;;;21.11;74.49;100289.72;3079846;46;20460;-68
2023/10/13 10:03:54;;;;;;;10.33;8.40;;;19.70;99.20;;;21.22;74.85;100283.41;3079369;46;20493;-70
2023/10/13 10:06:40;;;;;;;8.47;7.37;;;19.80;99.40;;;21.36;74.45;100286.44;3082277;46;20431;-71
2023/10/13 10:09:11;;;;;;;11.27;7.60;;;19.80;99.30;;;21.39;73.74;100281.41;3081990;46;21086;-70
2023/10/13 10:12:19;;;;;;;10.90;7.37;;;19.90;99.20;;;21.51;73.96;100270.50;3083235;46;20451;-68
2023/10/13 10:15:54;;;;;;;9.93;7.53;;;20.00;99.30;;;21.54;73.61;100270.78;3082316;46;20449;-69
2023/10/13 10:18:25;;;;;;;9.50;6.87;;;20.10;99.10;;;21.69;73.50;100266.59;3082233;46;20549;-69
2023/10/13 10:21:11;;;;;;;12.17;7.37;;;20.20;99.00;;;21.78;73.46;100265.03;3082314;46;20549;-70
2023/10/13 10:23:39;;;;;;;10.50;6.87;;;20.30;99.10;;;21.83;73.47;100265.06;3082536;46;20556;-69
2023/10/13 10:26:22;;;;;;;10.07;7.33;;;20.40;98.90;;;21.93;73.02;100267.84;3083110;46;21017;-69
2023/10/13 10:28:50;;;;;;;13.13;8.03;;;20.40;98.90;;;21.96;72.41;100256.59;3082589;46;20451;-71
2023/10/13 10:31:19;;;;;;;8.60;7.67;;;20.50;98.40;;;21.98;72.61;100257.94;3083082;46;20428;-69
2023/10/13 10:33:50;;;;;;;11.17;7.73;;;20.50;98.40;;;22.01;72.54;100246.69;3081750;46;20430;-69
2023/10/13 10:36:32;;;;;;;13.83;8.27;;;20.60;98.30;;;22.06;72.38;100257.44;3083147;46;20447;-70
2023/10/13 10:39:00;;;;;;;9.20;7.43;;;20.70;98.50;;;22.08;72.06;100251.84;3081438;46;20999;-70
2023/10/13 10:41:44;;;;;;;12.97;7.77;;;20.70;98.00;;;22.16;71.85;100265.53;3082950;46;20557;-70
2023/10/13 10:44:16;;;;;;;13.07;8.20;;;20.80;97.90;;;22.29;71.46;100245.47;3081400;46;20517;-70
2023/10/13 10:47:01;;;;;;;11.23;7.03;;;20.80;97.90;;;22.37;71.34;100230.75;3082489;46;20422;-70
2023/10/13 10:49:38;;;;;;;10.97;6.83;;;20.90;97.80;;;22.48;70.92;100235.06;3082334;46;21504;-69
2023/10/13 10:52:18;;;;;;;10.83;7.30;;;21.00;98.00;;;22.52;70.39;100214.66;3082535;46;21045;-68
2023/10/13 10:54:59;;;;;;;12.77;6.97;;;21.10;97.50;;;22.52;70.30;100218.16;3082319;46;20423;-69
2023/10/13 10:57:36;;;;;;;8.63;6.70;;;21.20;97.20;;;22.60;70.08;100203.41;3081472;46;21096;-69
2023/10/13 11:00:11;;;;;;;11.43;7.03;;;21.20;97.20;;;22.62;69.74;100175.28;3082131;46;20511;-68
2023/10/13 11:02:39;;;;;;;12.17;7.20;;;21.20;96.90;;;22.53;69.41;100170.69;3081817;46;20430;-69
2023/10/13 11:05:09;;;;;;;12.00;6.80;;;21.20;96.50;;;22.51;69.48;100162.09;3082045;46;20431;-69
2023/10/13 11:07:52;;;;;;;12.20;7.03;;;21.20;96.30;;;22.50;69.15;100172.03;3083324;46;20442;-69
2023/10/13 11:10:27;;;;;;;12.47;6.37;;;21.30;96.30;;;22.57;68.86;100167.19;3082095;46;20459;-69
2023/10/13 11:13:13;;;;;;;12.87;6.00;;;21.30;96.20;;;22.63;68.94;100168.81;3082425;46;21038;-69
2023/10/13 11:15:46;;;;;;;10.07;6.37;;;21.30;96.00;;;22.68;67.98;100190.31;3082144;46;20514;-70
2023/10/13 11:18:20;;;;;;;12.27;6.27;;;21.40;95.60;;;22.80;68.07;100185.47;3082329;46;20443;-70
2023/10/13 11:20:55;;;;;;;9.93;5.93;;;21.40;95.80;;;22.94;67.98;100160.78;3082113;46;20439;-69
2023/10/13 11:23:25;;;;;;;13.53;6.30;;;21.50;95.80;;;22.97;67.13;100153.00;3082550;46;20501;-71
2023/10/13 11:26:00;;;;;;;7.37;5.53;;;21.60;95.50;;;22.97;66.41;100160.22;3081658;46;20565;-70
2023/10/13 11:28:29;;;;;;;11.17;6.20;;;21.60;94.90;;;23.04;66.51;100155.41;3082120;46;20439;-70
2023/10/13 11:30:58;;;;;;;13.87;5.37;;;21.60;94.80;;;23.01;65.94;100150.59;3081902;46;20471;-69
2023/10/13 11:33:28;;;;;;;12.77;8.07;;;21.70;94.40;;;23.17;66.43;100165.59;3081942;46;21154;-68
2023/10/13 11:36:01;;;;;;;9.27;5.20;;;21.70;94.80;;;23.15;65.24;100148.94;3082372;46;20431;-70
2023/10/13 11:38:49;;;;;;;13.03;5.97;;;21.80;94.10;;;23.25;65.17;100140.88;3081922;46;20564;-69
2023/10/13 11:41:19;;;;;;;10.60;6.20;;;21.80;94.10;;;23.43;65.24;100145.69;3082028;46;21108;-70
2023/10/13 11:49:18;;;;;;;8.20;5.70;;;22.00;93.60;;;23.63;63.67;100115.25;3081720;46;20528;-69
2023/10/13 11:51:49;;;;;;;10.50;5.60;;;22.00;93.80;;;23.70;63.87;100121.91;3082148;46;20507;-69
2023/10/13 11:54:23;;;;;;;14.07;5.60;;;22.10;93.60;;;23.67;62.41;100105.56;3082035;46;20456;-69
2023/10/13 11:56:52;;;;;;;10.83;5.87;;;22.10;93.00;;;23.63;62.68;100107.19;3081914;46;20427;-70
2023/10/13 11:59:28;;;;;;;13.60;6.13;;;22.20;92.80;;;23.73;63.15;100099.88;3081270;46;20572;-70
2023/10/13 12:04:51;;;;;;;9.17;6.07;;;22.30;92.80;;;23.82;62.64;100102.81;3080770;46;20420;-70
2023/10/13 12:07:26;;;;;;;12.10;5.53;;;22.30;92.70;;;23.95;61.97;100094.91;3081725;46;20427;-70
2023/10/13 12:12:28;;;;;;;11.70;6.30;;;22.50;92.60;;;24.14;61.47;100089.72;3081768;46;20550;-70
2023/10/13 12:14:56;;;;;;;9.80;5.67;;;22.60;92.20;;;24.18;61.07;100086.19;3081700;46;20426;-69
2023/10/13 12:17:34;;;;;;;7.90;5.23;;;22.60;92.10;;;24.20;60.43;100075.94;3082040;46;20548;-69
2023/10/13 12:20:09;;;;;;;10.50;6.13;;;22.70;92.00;;;24.20;60.48;100067.88;3081485;46;20443;-70
2023/10/13 12:22:39;;;;;;;11.17;5.50;;;22.70;91.70;;;24.14;59.77;100060.94;3081732;46;20439;-70
2023/10/13 12:25:24;;;;;;;8.63;5.00;;;22.70;91.20;;;24.26;60.44;100065.16;3081593;46;21060;-71
2023/10/13 12:27:57;;;;;;;10.90;5.77;;;22.80;91.60;;;24.27;60.12;100056.00;3080707;46;20524;-70
2023/10/13 12:30:35;;;;;;;14.17;6.73;;;22.80;91.20;;;24.29;60.17;100043.88;3080206;46;20493;-69
2023/10/13 12:33:09;;;;;;;9.37;5.50;;;22.80;91.20;;;24.34;59.86;100048.41;3080449;46;20431;-69
2023/10/13 12:52:20;;;;;;;9.47;5.90;;;22.90;89.60;;;24.37;57.67;100013.66;3081371;46;20884;-70
2023/10/13 12:57:31;;;;;;;13.27;5.93;;;23.00;89.60;;;24.47;57.89;100007.38;3081545;46;20463;-70
2023/10/13 13:00:01;;;;;;;14.27;6.50;;;23.00;89.70;;;24.52;57.52;99999.25;3080794;46;20473;-69
2023/10/13 13:02:29;;;;;;;12.73;6.47;;;23.00;89.20;;;24.45;57.32;99998.78;3080942;46;20423;-69
2023/10/13 13:05:05;;;;;;;9.47;6.03;;;23.10;88.80;;;24.47;58.03;99994.72;3081129;46;20452;-69
2023/10/13 13:07:43;;;;;;;16.00;6.20;;;23.10;89.40;;;24.39;57.52;99989.97;3081555;46;20429;-69
2023/10/13 13:10:13;;;;;;;14.47;6.43;;;23.00;88.40;;;24.43;57.23;99987.50;3081052;43;20462;-70
2023/10/13 13:12:42;;;;;;;10.50;6.63;;;23.10;88.60;;;24.42;56.92;99984.00;3081229;46;20549;-70
2023/10/13 13:15:12;;;;;;;10.80;5.63;;;23.00;88.40;;;24.45;57.45;99982.66;3080169;46;20435;-71
2023/10/13 13:17:40;;;;;;;10.00;6.40;;;23.00;88.40;;;24.42;56.96;99964.38;3081382;46;20541;-70
2023/10/13 13:20:26;;;;;;;15.50;6.33;;;23.00;87.80;;;24.43;56.57;99961.41;3081275;46;20993;-69
2023/10/13 13:22:55;;;;;;;10.40;6.00;;;23.00;87.60;;;24.47;56.34;99953.56;3081760;46;20439;-70
2023/10/13 13:25:29;;;;;;;14.10;6.33;;;23.00;87.20;;;24.46;55.99;99951.97;3081672;46;20455;-70
2023/10/13 13:28:04;;;;;;;16.97;6.03;;;23.00;86.80;;;24.46;56.29;99941.22;3081348;46;20564;-69
2023/10/13 13:30:34;;;;;;;8.37;5.23;;;23.10;86.80;;;24.47;56.36;99942.78;3080708;46;20581;-70
2023/10/13 13:33:10;;;;;;;11.50;5.90;;;23.10;86.90;;;24.56;56.21;99947.25;3080912;46;20586;-69
2023/10/13 13:35:43;;;;;;;15.30;6.07;;;23.10;86.90;;;24.61;56.00;99938.34;3081184;46;20436;-69
2023/10/13 13:38:33;;;;;;;10.97;5.90;;;23.20;86.60;;;24.67;55.55;99931.81;3081131;46;20435;-69
2023/10/13 13:41:09;;;;;;;11.40;5.70;;;23.20;86.00;;;24.77;55.29;99926.34;3080664;46;20592;-68
2023/10/13 13:43:38;;;;;;;11.93;6.33;;;23.30;85.70;;;24.91;54.71;99916.47;3081028;43;20447;-70
2023/10/13 13:46:09;;;;;;;11.20;5.80;;;23.40;85.80;;;25.04;54.71;99914.94;3080194;46;21051;-70
2023/10/13 13:48:40;;;;;;;10.80;5.77;;;23.50;85.90;;;25.05;53.91;99922.75;3079411;46;20518;-70